Finly, Indiana
Current Conditions -  °F | °C
As of 3:53 PM on Thursday 18 Dec 2014 (Local Time) from KGEZ Reporting Station
Overcast Overcast  
Wind Chill: 29°   Ceiling: 1800
Heat Index: 29°   Visibility: 9mi
Dew Point: 22°   Wind: 3mph
Humidity: 75%   Direction: 320°NW
Pressure: 30.22"   Gusts: NA
Location:  39.71°N, 85.82°W
Report Text: KGEZ 182053Z AUTO 32003KT 9SM FEW013 BKN018 OVC070 M02/M06 A3022 RMK AO2 SNE01 SLP243 P0000 60000 T10171056 55015
Loading
Personal Weather Stations






























Interactive Weather Map New forecast layout! Learn more

10-Day Weather Forecast

Advertisements
Track Severe Weather on mobile